NAVACERRADA, MADRID

latitud = 40° 46' 50''N | longitud = 004° 00' 37''W
1894 metros sobre el nivel del mar | datos mensuales

Fecha, hora, temperatura, viento dirección y velocidad, humedad y presión.

  • 21-06-2018 22:00:00 | 17.00°C | Sudeste |11.00 km/h | 42.00% | 818.00 hPa
  • 21-06-2018 21:00:00 | 17.80°C | Este |10.00 km/h | 39.00% | 817.90 hPa
  • 21-06-2018 20:00:00 | 19.70°C | Sudeste |15.00 km/h | 30.00% | 817.90 hPa
  • 21-06-2018 19:00:00 | 21.60°C | Sur |11.00 km/h | 36.00% | 817.80 hPa
  • 21-06-2018 18:00:00 | 22.10°C | Sur |15.00 km/h | 32.00% | 817.90 hPa
  • 21-06-2018 17:00:00 | 22.50°C | Sudeste |13.00 km/h | 35.00% | 818.00 hPa
  • 21-06-2018 16:00:00 | 23.30°C | Sudeste |15.00 km/h | 33.00% | 818.20 hPa
  • 21-06-2018 15:00:00 | 22.90°C | Sudeste |14.00 km/h | 41.00% | 818.40 hPa
  • 21-06-2018 14:00:00 | 22.10°C | Sur |11.00 km/h | 49.00% | 818.40 hPa
  • 21-06-2018 13:00:00 | 22.20°C | Sudeste |15.00 km/h | 49.00% | 818.50 hPa
  • 21-06-2018 12:00:00 | 20.70°C | Sudeste |19.00 km/h | 55.00% | 818.40 hPa
  • 21-06-2018 11:00:00 | 19.30°C | Sudeste |17.00 km/h | 57.00% | 818.00 hPa
  • 21-06-2018 10:00:00 | 18.10°C | Sudeste |20.00 km/h | 60.00% | 817.90 hPa
  • 21-06-2018 09:00:00 | 16.30°C | Sur |15.00 km/h | 63.00% | 817.90 hPa
  • 21-06-2018 08:00:00 | 14.60°C | Sudeste |20.00 km/h | 67.00% | 817.50 hPa
  • 21-06-2018 07:00:00 | 13.20°C | Sudeste |18.00 km/h | 70.00% | 817.30 hPa
  • 21-06-2018 06:00:00 | 13.20°C | Sudeste |6.00 km/h | 68.00% | 817.50 hPa
  • 21-06-2018 05:00:00 | 13.20°C | Oeste |3.00 km/h | 82.00% | 817.60 hPa
  • 21-06-2018 04:00:00 | 14.00°C | Sur |3.00 km/h | 73.00% | 817.90 hPa
  • 21-06-2018 03:00:00 | 14.90°C | Sudeste |8.00 km/h | 72.00% | 818.20 hPa
  • 21-06-2018 02:00:00 | 16.10°C | Este |7.00 km/h | 70.00% | 818.20 hPa
  • 21-06-2018 01:00:00 | 16.50°C | Este |16.00 km/h | 64.00% | 818.20 hPa
  • 21-06-2018 00:00:00 | 17.30°C | Sur |5.00 km/h | 53.00% | 818.50 hPa
  • 20-06-2018 23:00:00 | 17.00°C | Sudeste |6.00 km/h | 56.00% | 818.40 hPa